Etusivu
METAR-TAF:

METAR-TAF

Lentoasemat :

Larissa, Kreikka

Leveyspiiri: 39-38N, Pituuspiiri: 022-25E, korkeus merenpinnasta: 73 m

METAR: puuttuu

Aika: 08:27 (05:27 UTC)

Sääennuste

Tämä raportti tehtiin 3 tuntia ja 27 minuuttia sitten, kello 02.00 UTC
Ennuste voimassa 13. päivästä klo 03 UTC - 13. päivään klo 12 UTC
Tuuli 3 kn eri suunnista
Näkyvyys 10 km tai enemmän
Muutamia pilviä 2000 ft:n korkeudessa
Tulossa
13. päivästä klo 07 UTC - 13. päivään klo 09 UTC
Tuuli 10 kn idästä

TAF: LGLR 130200Z 1303/1312 VRB03KT 9999 FEW020 BECMG 1307/1309 08010KT

Säähavainnot ja -ennusteet yli 4000 lentoasemalta (METAR- ja TAF-raportit).

Käytössä olevat sääasemat on merkitty karttaan keltaisilla ja punaisilla pisteillä.

Aseta hiiri pisteen päälle nähdäksesi sääaseman nimen.

Klikkaa sitten nähdäksesi säähavainnot ja -ennusteet.

Kartan vaihtaminen: klikkaa mustalla rastilla varustettuja vihreitä pisteitä, niin voit zoomata sisään; viivalla varustettua vihreää pistettä, niin voit zoomata ulos tai vihreitä nuolia, niin pääset viereisille kartoille.


METAR-TAF: